Vanguard — WDD5619 — position and weather

sailwx.info

Track history (hours):
 
Tides and Currents Weather Stations Pressure Air Temp Water Temp Dewpoint Dewpoint Depression Visibility Wind Speed Wind Dir Waves Ship Positions

Vanguard

Owner: Galbraith, Ruth A, Oxnard, CA. More information available from US FCC via Universal Licensing System and Coast Guard Vessel Documentation Center.

Last reported at 2017-Oct-15 23:42 UTC. Time now 2017-Oct-19 02:12 UTC.
Position N 34°10' W 119°14'.

Length 20 m.

Type: Passenger vessel. MMSI: 367131070.

Date/timePositionNaut miles runAvg speedWind from/ knotsBaromVisibWave heightAir tempDewpointWater temp
2017-Oct-15 23:42N 34°10' W 119°14'1 3.8
2017-Oct-15 23:24N 34°09' W 119°14'511.8
2017-Oct-15 23:00N 34°05' W 119°17'5 7.8
2017-Oct-15 22:19N 34°01' W 119°21'2 6.8
2017-Oct-15 22:00N 34°01' W 119°24'4 8.1
2017-Oct-15 21:29N 34°04' W 119°20'611.5
2017-Oct-15 21:00N 34°08' W 119°16'3 4.3
2017-Oct-15 20:19N 34°10' W 119°14'0 0.0
2017-Oct-15 19:46N 34°10' W 119°14'0 0.0
2017-Oct-14 22:10N 34°10' W 119°14'1 5.5
2017-Oct-14 21:57N 34°09' W 119°14'512.0
2017-Oct-14 21:30N 34°05' W 119°18'5 9.0
2017-Oct-14 20:58N 34°02' W 119°23'2 2.8
2017-Oct-14 20:25N 34°01' W 119°21'0 0.8
2017-Oct-14 19:56N 34°01' W 119°22'2 4.5
2017-Oct-14 19:24N 34°03' W 119°21'0 1.1
2017-Oct-14 19:00N 34°03' W 119°21'1 1.0
2017-Oct-14 18:28N 34°02' W 119°21'1 2.3
2017-Oct-14 18:00N 34°01' W 119°21'2 3.6
2017-Oct-14 17:30N 34°03' W 119°20'611.2
2017-Oct-14 16:58N 34°08' W 119°15'1 0.0
2017-Oct-13 23:17N 34°08' W 119°15'310.2
2017-Oct-13 23:00N 34°06' W 119°17'510.8
2017-Oct-13 22:30N 34°01' W 119°21'3 5.2
2017-Oct-13 21:59N 34°00' W 119°24'4 8.8
2017-Oct-13 21:30N 34°04' W 119°21'5 9.7
2017-Oct-13 21:00N 34°07' W 119°17'4 7.8
2017-Oct-13 20:30N 34°10' W 119°14'0 0.1
2017-Oct-13 20:00N 34°10' W 119°14'510.0
2017-Oct-13 19:30N 34°06' W 119°17'5 9.4
2017-Oct-13 19:00N 34°03' W 119°21'2 4.7
2017-Oct-13 18:30N 34°01' W 119°23'1 1.8
2017-Oct-13 17:58N 34°01' W 119°22'4 8.7
2017-Oct-13 17:30N 34°04' W 119°19'5 9.1
2017-Oct-13 17:00N 34°08' W 119°16'3 4.9
2017-Oct-13 16:28N 34°10' W 119°14'0 0.9
2017-Oct-13 15:58N 34°10' W 119°13'  
2017-Oct-08 20:54N 34°10' W 119°14'0 0.0
2017-Oct-08 20:30N 34°10' W 119°14'5 8.2
2017-Oct-08 19:52N 34°06' W 119°18'3 6.9
2017-Oct-08 19:28N 34°04' W 119°20'5 9.3
2017-Oct-08 18:53N 34°00' W 119°24'1 3.3
2017-Oct-08 18:30N 34°01' W 119°25'3 4.4
2017-Oct-08 17:50N 34°01' W 119°22'410.5
2017-Oct-08 17:29N 34°04' W 119°19'5 9.6
2017-Oct-08 16:59N 34°08' W 119°16'3 5.4
2017-Oct-08 16:28N 34°10' W 119°14'0 0.0
2017-Oct-08 00:13N 34°10' W 119°14'0 0.0
2017-Oct-07 23:58N 34°10' W 119°14'2 4.0
2017-Oct-07 23:29N 34°08' W 119°14'511.5
2017-Oct-07 23:00N 34°04' W 119°18'4 7.9
2017-Oct-07 22:30N 34°01' W 119°22'2 3.5
2017-Oct-07 22:00N 34°01' W 119°24'4 8.5
2017-Oct-07 21:30N 34°04' W 119°21'8 9.5
2017-Oct-07 20:37N 34°10' W 119°14'0 0.5
2017-Oct-07 20:11N 34°10' W 119°14'6 9.3
2017-Oct-07 19:33N 34°06' W 119°19'2 7.0
2017-Oct-07 19:13N 34°04' W 119°21'4 8.4
2017-Oct-07 18:41N 34°01' W 119°24'11 6.1
2017-Oct-07 16:56N 34°08' W 119°15'0 0.0
2017-Oct-06 20:24N 34°08' W 119°15'4 9.1
2017-Oct-06 20:00N 34°06' W 119°18'610.3
2017-Oct-06 19:27N 34°01' W 119°22'1 2.0
2017-Oct-06 19:00N 34°01' W 119°21'1 2.2
2017-Oct-06 18:30N 34°01' W 119°22'3 6.4
2017-Oct-06 17:59N 34°01' W 119°26'711.5
2017-Oct-06 17:22N 34°05' W 119°19'3 8.6
2017-Oct-06 17:00N 34°08' W 119°16'  
Track history (hours):
 
Tides and Currents Weather Stations Pressure Air Temp Water Temp Dewpoint Dewpoint Depression Visibility Wind Speed Wind Dir Waves Ship Positions

Vanguard

Owner: Galbraith, Ruth A, Oxnard, CA. More information available from US FCC via Universal Licensing System and Coast Guard Vessel Documentation Center.

Last reported at 2017-Oct-15 23:42 UTC. Time now 2017-Oct-19 02:12 UTC.
Position N 34°10' W 119°14'.

Length 20 m.

Type: Passenger vessel. MMSI: 367131070.

Date/timePositionNaut miles runAvg speedWind from/ knotsBaromVisibWave heightAir tempDewpointWater temp
2017-Oct-15 23:42N 34°10' W 119°14'1 3.8
2017-Oct-15 23:24N 34°09' W 119°14'511.8
2017-Oct-15 23:00N 34°05' W 119°17'5 7.8
2017-Oct-15 22:19N 34°01' W 119°21'2 6.8
2017-Oct-15 22:00N 34°01' W 119°24'4 8.1
2017-Oct-15 21:29N 34°04' W 119°20'611.5
2017-Oct-15 21:00N 34°08' W 119°16'3 4.3
2017-Oct-15 20:19N 34°10' W 119°14'0 0.0
2017-Oct-15 19:46N 34°10' W 119°14'0 0.0
2017-Oct-14 22:10N 34°10' W 119°14'1 5.5
2017-Oct-14 21:57N 34°09' W 119°14'512.0
2017-Oct-14 21:30N 34°05' W 119°18'5 9.0
2017-Oct-14 20:58N 34°02' W 119°23'2 2.8
2017-Oct-14 20:25N 34°01' W 119°21'0 0.8
2017-Oct-14 19:56N 34°01' W 119°22'2 4.5
2017-Oct-14 19:24N 34°03' W 119°21'0 1.1
2017-Oct-14 19:00N 34°03' W 119°21'1 1.0
2017-Oct-14 18:28N 34°02' W 119°21'1 2.3
2017-Oct-14 18:00N 34°01' W 119°21'2 3.6
2017-Oct-14 17:30N 34°03' W 119°20'611.2
2017-Oct-14 16:58N 34°08' W 119°15'1 0.0
2017-Oct-13 23:17N 34°08' W 119°15'310.2
2017-Oct-13 23:00N 34°06' W 119°17'510.8
2017-Oct-13 22:30N 34°01' W 119°21'3 5.2
2017-Oct-13 21:59N 34°00' W 119°24'4 8.8
2017-Oct-13 21:30N 34°04' W 119°21'5 9.7
2017-Oct-13 21:00N 34°07' W 119°17'4 7.8
2017-Oct-13 20:30N 34°10' W 119°14'0 0.1
2017-Oct-13 20:00N 34°10' W 119°14'510.0
2017-Oct-13 19:30N 34°06' W 119°17'5 9.4
2017-Oct-13 19:00N 34°03' W 119°21'2 4.7
2017-Oct-13 18:30N 34°01' W 119°23'1 1.8
2017-Oct-13 17:58N 34°01' W 119°22'4 8.7
2017-Oct-13 17:30N 34°04' W 119°19'5 9.1
2017-Oct-13 17:00N 34°08' W 119°16'3 4.9
2017-Oct-13 16:28N 34°10' W 119°14'0 0.9
2017-Oct-13 15:58N 34°10' W 119°13'  
2017-Oct-08 20:54N 34°10' W 119°14'0 0.0
2017-Oct-08 20:30N 34°10' W 119°14'5 8.2
2017-Oct-08 19:52N 34°06' W 119°18'3 6.9
2017-Oct-08 19:28N 34°04' W 119°20'5 9.3
2017-Oct-08 18:53N 34°00' W 119°24'1 3.3
2017-Oct-08 18:30N 34°01' W 119°25'3 4.4
2017-Oct-08 17:50N 34°01' W 119°22'410.5
2017-Oct-08 17:29N 34°04' W 119°19'5 9.6
2017-Oct-08 16:59N 34°08' W 119°16'3 5.4
2017-Oct-08 16:28N 34°10' W 119°14'0 0.0
2017-Oct-08 00:13N 34°10' W 119°14'0 0.0
2017-Oct-07 23:58N 34°10' W 119°14'2 4.0
2017-Oct-07 23:29N 34°08' W 119°14'511.5
2017-Oct-07 23:00N 34°04' W 119°18'4 7.9
2017-Oct-07 22:30N 34°01' W 119°22'2 3.5
2017-Oct-07 22:00N 34°01' W 119°24'4 8.5
2017-Oct-07 21:30N 34°04' W 119°21'8 9.5
2017-Oct-07 20:37N 34°10' W 119°14'0 0.5
2017-Oct-07 20:11N 34°10' W 119°14'6 9.3
2017-Oct-07 19:33N 34°06' W 119°19'2 7.0
2017-Oct-07 19:13N 34°04' W 119°21'4 8.4
2017-Oct-07 18:41N 34°01' W 119°24'11 6.1
2017-Oct-07 16:56N 34°08' W 119°15'0 0.0
2017-Oct-06 20:24N 34°08' W 119°15'4 9.1
2017-Oct-06 20:00N 34°06' W 119°18'610.3
2017-Oct-06 19:27N 34°01' W 119°22'1 2.0
2017-Oct-06 19:00N 34°01' W 119°21'1 2.2
2017-Oct-06 18:30N 34°01' W 119°22'3 6.4
2017-Oct-06 17:59N 34°01' W 119°26'711.5
2017-Oct-06 17:22N 34°05' W 119°19'3 8.6
2017-Oct-06 17:00N 34°08' W 119°16'  

Dump ship's entire track history